createdAt,value
2023-01-17T00:02:47.750Z,3.76
2023-01-17T00:08:09.354Z,3.80
2023-01-17T00:13:12.055Z,3.82
2023-01-17T00:18:14.743Z,3.80
2023-01-17T00:24:01.185Z,3.79
2023-01-17T00:29:03.883Z,3.80
2023-01-17T00:34:06.645Z,3.83
2023-01-17T00:39:09.374Z,3.83
2023-01-17T00:44:30.995Z,3.79
2023-01-17T00:49:52.250Z,3.76
2023-01-17T00:55:13.403Z,3.75
2023-01-17T01:00:37.846Z,3.75
2023-01-17T01:05:59.561Z,3.74
2023-01-17T01:11:24.762Z,3.72
2023-01-17T01:16:46.312Z,3.75
2023-01-17T01:22:08.610Z,3.78
2023-01-17T01:27:30.855Z,3.79
2023-01-17T01:32:53.292Z,3.77
2023-01-17T01:37:56.256Z,3.77
2023-01-17T01:43:00.640Z,3.78
2023-01-17T01:48:33.106Z,3.79
2023-01-17T01:53:40.331Z,3.78
2023-01-17T01:58:48.859Z,3.75
2023-01-17T02:03:52.410Z,3.74
2023-01-17T02:08:59.192Z,3.73
2023-01-17T02:14:01.968Z,3.69
2023-01-17T02:19:25.767Z,3.64
2023-01-17T02:25:06.156Z,3.61
2023-01-17T02:30:34.288Z,3.59
2023-01-17T02:36:10.240Z,3.53
2023-01-17T02:41:19.680Z,3.47
2023-01-17T02:46:22.487Z,3.46
2023-01-17T02:51:40.507Z,3.44
2023-01-17T02:57:18.468Z,3.39
2023-01-17T03:02:35.561Z,3.36
2023-01-17T03:07:41.808Z,3.33
2023-01-17T03:12:45.680Z,3.29
2023-01-17T03:17:52.302Z,3.27
2023-01-17T03:22:55.135Z,3.25
2023-01-17T03:27:57.804Z,3.22
2023-01-17T03:33:00.524Z,3.20
2023-01-17T03:38:03.475Z,3.17
2023-01-17T03:43:06.207Z,3.14
2023-01-17T03:48:08.919Z,3.13
2023-01-17T03:53:11.623Z,3.11
2023-01-17T03:58:15.632Z,3.08
2023-01-17T04:03:18.289Z,3.06
2023-01-17T04:08:21.210Z,3.02
2023-01-17T04:13:23.938Z,2.97
2023-01-17T04:18:26.943Z,2.96
2023-01-17T04:23:29.748Z,2.97
2023-01-17T04:28:32.432Z,2.97
2023-01-17T04:33:35.155Z,2.95
2023-01-17T04:38:37.873Z,2.94
2023-01-17T04:43:40.540Z,2.91
2023-01-17T04:48:43.283Z,2.89
2023-01-17T04:53:46.039Z,2.93
2023-01-17T04:58:48.725Z,2.90
2023-01-17T05:03:51.400Z,2.88
2023-01-17T05:08:54.138Z,2.92
2023-01-17T05:13:56.789Z,2.95
2023-01-17T05:18:59.448Z,2.92
2023-01-17T05:24:02.144Z,2.91
2023-01-17T05:29:04.830Z,2.93
2023-01-17T05:34:07.496Z,2.93
2023-01-17T05:39:10.227Z,2.90
2023-01-17T05:44:15.172Z,2.90
2023-01-17T05:49:17.875Z,2.93
2023-01-17T05:54:20.562Z,2.94
2023-01-17T05:59:36.539Z,2.93
2023-01-17T06:04:39.904Z,2.95
2023-01-17T06:09:42.627Z,2.99
2023-01-17T06:14:45.401Z,3.01
2023-01-17T06:19:48.109Z,3.02
2023-01-17T06:24:50.767Z,3.06
2023-01-17T06:29:53.588Z,3.07
2023-01-17T06:34:56.399Z,3.12
2023-01-17T06:39:59.054Z,3.19
2023-01-17T06:45:01.782Z,3.22
2023-01-17T06:50:05.286Z,3.28
2023-01-17T06:55:11.407Z,3.35
2023-01-17T07:00:15.359Z,3.39
2023-01-17T07:05:18.553Z,3.46
2023-01-17T07:10:22.089Z,3.53
2023-01-17T07:15:24.851Z,3.61
2023-01-17T07:20:27.542Z,3.71
2023-01-17T07:25:30.445Z,3.76
2023-01-17T07:30:33.401Z,3.81
2023-01-17T07:35:36.733Z,3.88
2023-01-17T07:40:42.323Z,3.95
2023-01-17T07:45:50.835Z,3.99
2023-01-17T07:50:58.665Z,4.03
2023-01-17T07:56:04.551Z,4.05
2023-01-17T08:01:10.534Z,4.09
2023-01-17T08:06:18.624Z,4.12
2023-01-17T08:11:21.319Z,4.15
2023-01-17T08:16:27.187Z,4.19
2023-01-17T08:21:29.907Z,4.22
2023-01-17T08:26:32.596Z,4.24
2023-01-17T08:31:46.281Z,4.28
2023-01-17T08:36:52.165Z,4.35
2023-01-17T08:41:54.925Z,4.37
2023-01-17T08:46:58.097Z,4.39
2023-01-17T08:52:01.005Z,4.43
2023-01-17T08:57:05.119Z,4.42
2023-01-17T09:02:15.070Z,4.45
2023-01-17T09:07:20.537Z,4.52
2023-01-17T09:12:23.758Z,4.61
2023-01-17T09:17:26.441Z,4.66
2023-01-17T09:22:29.154Z,4.67
2023-01-17T09:27:32.071Z,4.67
2023-01-17T09:32:34.782Z,4.69
2023-01-17T09:37:38.251Z,4.74
2023-01-17T09:42:41.715Z,4.79
2023-01-17T09:47:48.695Z,4.84
2023-01-17T09:53:00.882Z,4.87
2023-01-17T09:58:12.960Z,4.94
2023-01-17T10:03:37.639Z,5.03
2023-01-17T10:08:40.763Z,5.12
2023-01-17T10:14:00.462Z,5.17
2023-01-17T10:19:25.204Z,5.20
2023-01-17T10:24:52.821Z,5.23
2023-01-17T10:29:56.070Z,5.25
2023-01-17T10:35:15.839Z,5.21
2023-01-17T10:40:28.112Z,5.30
2023-01-17T10:45:40.118Z,5.38
2023-01-17T10:51:15.945Z,5.45
2023-01-17T10:56:26.970Z,5.52
2023-01-17T11:01:30.186Z,5.61
2023-01-17T11:06:33.234Z,5.72
2023-01-17T11:11:46.820Z,5.69
2023-01-17T11:17:19.439Z,5.59
2023-01-17T11:22:22.947Z,5.54
2023-01-17T11:27:28.505Z,5.64
2023-01-17T11:32:33.383Z,5.86
2023-01-17T11:37:53.170Z,6.25
2023-01-17T11:43:02.144Z,6.54
2023-01-17T11:48:32.356Z,6.50
2023-01-17T11:53:57.167Z,6.82
2023-01-17T11:59:17.550Z,6.91
2023-01-17T12:04:24.284Z,6.79
2023-01-17T12:10:01.651Z,6.55
2023-01-17T12:15:41.646Z,6.40
2023-01-17T12:21:13.736Z,6.42
2023-01-17T12:26:36.168Z,6.70
2023-01-17T12:32:06.669Z,6.96
2023-01-17T12:37:26.798Z,6.76
2023-01-17T12:42:36.557Z,6.58
2023-01-17T12:47:47.892Z,6.32
2023-01-17T12:53:21.599Z,6.17
2023-01-17T12:58:34.966Z,6.06
2023-01-17T13:04:13.793Z,6.03
2023-01-17T13:09:21.286Z,5.96
2023-01-17T13:14:24.845Z,5.88
2023-01-17T13:19:36.739Z,5.86
2023-01-17T13:24:45.249Z,5.80
2023-01-17T13:30:03.505Z,5.70
2023-01-17T13:35:43.621Z,5.62
2023-01-17T13:40:54.457Z,5.54
2023-01-17T13:46:04.714Z,5.48
2023-01-17T13:51:12.066Z,5.43
2023-01-17T13:56:24.688Z,5.39
2023-01-17T14:01:38.444Z,5.39
2023-01-17T14:06:44.827Z,5.39
2023-01-17T14:12:06.289Z,5.37
2023-01-17T14:17:28.029Z,5.36
2023-01-17T14:22:41.722Z,5.34
2023-01-17T14:27:50.497Z,5.32
2023-01-17T14:32:58.999Z,5.31
2023-01-17T14:38:03.158Z,5.36
2023-01-17T14:43:15.780Z,5.38
2023-01-17T14:48:23.470Z,5.39
2023-01-17T14:53:28.561Z,5.38
2023-01-17T14:58:33.108Z,5.41
2023-01-17T15:03:44.194Z,5.41
2023-01-17T15:08:48.517Z,5.39
2023-01-17T15:13:55.073Z,5.40
2023-01-17T15:18:57.838Z,5.39
2023-01-17T15:24:03.889Z,5.38
2023-01-17T15:29:12.498Z,5.40
2023-01-17T15:34:35.516Z,5.40
2023-01-17T15:39:40.621Z,5.39
2023-01-17T15:44:49.168Z,5.39
2023-01-17T15:49:53.051Z,5.38
2023-01-17T15:55:12.335Z,5.36
2023-01-17T16:00:21.625Z,5.33
2023-01-17T16:05:24.719Z,5.28
2023-01-17T16:10:32.621Z,5.22
2023-01-17T16:15:36.881Z,5.19
2023-01-17T16:20:44.549Z,5.18
2023-01-17T16:25:47.881Z,5.14
2023-01-17T16:30:51.739Z,5.09
2023-01-17T16:35:54.526Z,5.06
2023-01-17T16:40:57.248Z,5.04
2023-01-17T16:46:00.420Z,5.04
2023-01-17T16:51:06.500Z,5.02
2023-01-17T16:56:12.111Z,5.00
2023-01-17T17:01:17.783Z,4.98
2023-01-17T17:06:20.532Z,4.98
2023-01-17T17:11:24.061Z,5.00
2023-01-17T17:16:31.565Z,5.02
2023-01-17T17:21:35.954Z,5.05
2023-01-17T17:26:39.277Z,5.07
2023-01-17T17:31:43.044Z,5.06
2023-01-17T17:36:46.142Z,5.08
2023-01-17T17:41:48.943Z,5.10
2023-01-17T17:46:51.958Z,5.09
2023-01-17T17:51:54.615Z,5.06
2023-01-17T17:56:57.347Z,5.06
2023-01-17T18:02:00.227Z,5.03
2023-01-17T18:07:03.260Z,4.99
2023-01-17T18:12:06.251Z,4.95
2023-01-17T18:17:08.978Z,4.88
2023-01-17T18:22:11.784Z,4.81
2023-01-17T18:27:14.707Z,4.71
2023-01-17T18:32:17.413Z,4.61
2023-01-17T18:37:20.164Z,4.53
2023-01-17T18:42:23.775Z,4.46
2023-01-17T18:47:29.116Z,4.38
2023-01-17T18:52:33.380Z,4.32
2023-01-17T18:57:36.043Z,4.27
2023-01-17T19:02:39.085Z,4.20
2023-01-17T19:07:41.782Z,4.17
2023-01-17T19:12:45.710Z,4.12
2023-01-17T19:17:48.518Z,4.08
2023-01-17T19:22:52.030Z,4.05
2023-01-17T19:27:54.987Z,4.03
2023-01-17T19:32:57.945Z,3.98
2023-01-17T19:38:00.851Z,3.95
2023-01-17T19:43:04.776Z,3.93
2023-01-17T19:48:07.468Z,3.86
2023-01-17T19:53:10.171Z,3.78
2023-01-17T19:58:13.326Z,3.72
2023-01-17T20:03:16.079Z,3.68
2023-01-17T20:08:18.808Z,3.64
2023-01-17T20:13:21.563Z,3.59
2023-01-17T20:18:24.282Z,3.54
2023-01-17T20:23:27.089Z,3.52
2023-01-17T20:28:34.186Z,3.49
2023-01-17T20:33:37.010Z,3.44
2023-01-17T20:38:45.693Z,3.37
2023-01-17T20:43:51.299Z,3.32
2023-01-17T20:48:56.224Z,3.27
2023-01-17T20:54:01.245Z,3.22
2023-01-17T20:59:09.540Z,3.17
2023-01-17T21:04:13.074Z,3.16
2023-01-17T21:09:17.272Z,3.14
2023-01-17T21:14:21.795Z,3.11
2023-01-17T21:19:24.826Z,3.10
2023-01-17T21:24:28.676Z,3.07
2023-01-17T21:29:32.601Z,3.03
2023-01-17T21:34:35.379Z,2.99
2023-01-17T21:39:39.243Z,2.96
2023-01-17T21:44:41.968Z,2.91
2023-01-17T21:49:45.834Z,2.88
2023-01-17T21:55:07.267Z,2.84
2023-01-17T22:00:15.925Z,2.84
2023-01-17T22:05:18.811Z,2.87
2023-01-17T22:10:21.513Z,2.85
2023-01-17T22:15:24.411Z,2.76
2023-01-17T22:20:27.576Z,2.59
2023-01-17T22:25:30.790Z,2.44
2023-01-17T22:30:33.474Z,2.36
2023-01-17T22:35:36.201Z,2.31
2023-01-17T22:40:39.244Z,2.27
2023-01-17T22:45:41.945Z,2.22
2023-01-17T22:50:44.638Z,2.19
2023-01-17T22:55:47.332Z,2.16
2023-01-17T23:00:51.096Z,2.11
2023-01-17T23:05:53.886Z,2.01
2023-01-17T23:11:15.240Z,1.96
2023-01-17T23:16:36.412Z,1.98
2023-01-17T23:21:57.763Z,2.01
2023-01-17T23:27:19.320Z,1.96
2023-01-17T23:32:22.530Z,1.80
2023-01-17T23:37:48.357Z,1.63
2023-01-17T23:43:09.447Z,1.48
2023-01-17T23:48:12.391Z,1.43
2023-01-17T23:53:23.633Z,1.42
2023-01-17T23:58:27.589Z,1.40
